Time;durP1;ratioP1;P1;durP2;ratioP2;P2;SDS_P1;SDS_P2;PMS_P1;PMS_P2;Temp;Humidity;BMP_temperature;BMP_pressure;BME280_temperature;BME280_humidity;BME280_pressure;Samples;Min_cycle;Max_cycle;Signal;HPM_P1;HPM_P2
2021/11/26 00:03:19;;;;;;;7.50;3.13;;;;;;;5.03;100.00;100285.81;6188056;28;20195;-62
2021/11/26 00:06:40;;;;;;;7.70;3.77;;;;;;;5.15;100.00;100297.91;6184790;28;20233;-62
2021/11/26 00:10:01;;;;;;;7.23;3.07;;;;;;;4.83;100.00;100296.88;6186645;28;20218;-62
2021/11/26 00:13:28;;;;;;;10.73;5.07;;;;;;;4.78;100.00;100295.13;6186174;28;20730;-64
2021/11/26 00:16:56;;;;;;;8.20;3.73;;;;;;;4.85;100.00;100287.44;6184094;28;20333;-62
2021/11/26 00:20:18;;;;;;;6.40;3.23;;;;;;;4.81;100.00;100283.13;6189182;28;20226;-63
2021/11/26 00:23:40;;;;;;;6.80;4.23;;;;;;;4.82;100.00;100273.66;6189345;28;20296;-63
2021/11/26 00:27:00;;;;;;;7.77;3.40;;;;;;;4.59;100.00;100284.69;6186439;28;20316;-62
2021/11/26 00:30:22;;;;;;;8.33;2.73;;;;;;;4.70;100.00;100280.44;6182699;28;20611;-63
2021/11/26 00:33:43;;;;;;;4.87;2.80;;;;;;;4.71;100.00;100282.19;6185003;28;20194;-63
2021/11/26 00:37:05;;;;;;;5.83;2.90;;;;;;;4.66;100.00;100277.84;6184408;28;20598;-63
2021/11/26 00:40:27;;;;;;;3.80;2.10;;;;;;;4.85;100.00;100265.94;6184988;28;20238;-62
2021/11/26 00:43:48;;;;;;;3.63;1.97;;;;;;;4.99;100.00;100268.59;6184384;28;20195;-62
2021/11/26 00:47:09;;;;;;;4.80;2.80;;;;;;;5.19;100.00;100264.34;6184107;28;20508;-62
2021/11/26 00:50:30;;;;;;;2.60;1.57;;;;;;;5.29;100.00;100247.19;6183249;28;20612;-63
2021/11/26 00:53:53;;;;;;;5.73;1.93;;;;;;;5.55;100.00;100236.94;6186095;28;20222;-63
2021/11/26 00:57:14;;;;;;;2.43;1.37;;;;;;;5.43;100.00;100231.72;6182739;28;20206;-63
2021/11/26 01:00:36;;;;;;;2.97;1.30;;;;;;;5.17;100.00;100216.16;6173835;28;20234;-62
2021/11/26 01:03:56;;;;;;;2.90;2.00;;;;;;;5.14;100.00;100224.78;6176875;28;20214;-62
2021/11/26 01:07:17;;;;;;;3.77;1.50;;;;;;;4.79;100.00;100220.31;6183784;28;20210;-62
2021/11/26 01:10:40;;;;;;;3.20;1.73;;;;;;;4.79;100.00;100215.16;6179503;28;20540;-62
2021/11/26 01:14:01;;;;;;;10.03;2.87;;;;;;;4.71;100.00;100217.72;6184096;28;20230;-61
2021/11/26 01:17:22;;;;;;;9.07;3.10;;;;;;;5.12;100.00;100206.69;6181365;28;20202;-62
2021/11/26 01:20:44;;;;;;;3.67;2.23;;;;;;;5.04;100.00;100194.59;6182985;28;20250;-62
2021/11/26 01:24:05;;;;;;;7.83;3.20;;;;;;;4.71;100.00;100193.59;6186307;28;20245;-62
2021/11/26 01:27:27;;;;;;;5.53;2.53;;;;;;;4.76;100.00;100181.59;6187230;28;20210;-62
2021/11/26 01:30:50;;;;;;;5.07;2.30;;;;;;;4.37;100.00;100185.69;6187186;28;20225;-61
2021/11/26 01:34:11;;;;;;;6.30;3.17;;;;;;;4.46;100.00;100190.91;6184138;28;20229;-62
2021/11/26 01:37:32;;;;;;;13.33;3.50;;;;;;;4.47;100.00;100189.19;6182282;28;20195;-61
2021/11/26 01:40:53;;;;;;;8.10;3.17;;;;;;;4.83;100.00;100193.69;6186135;28;20333;-62
2021/11/26 01:44:15;;;;;;;13.03;4.97;;;;;;;4.89;100.00;100188.53;6186823;28;20238;-62
2021/11/26 01:47:36;;;;;;;8.90;3.43;;;;;;;5.02;100.00;100173.09;6186335;28;20552;-63
2021/11/26 01:50:57;;;;;;;8.93;3.60;;;;;;;4.51;100.00;100162.56;6175920;28;20293;-63
2021/11/26 01:54:18;;;;;;;8.57;3.03;;;;;;;4.77;100.00;100165.28;6184955;28;20237;-61
2021/11/26 01:57:39;;;;;;;8.73;3.27;;;;;;;4.53;100.00;100160.84;6179062;28;20206;-62
2021/11/26 02:01:03;;;;;;;6.63;2.80;;;;;;;4.99;100.00;100147.28;6187161;28;20222;-62
2021/11/26 02:04:24;;;;;;;8.27;4.63;;;;;;;4.79;100.00;100148.09;6187025;28;20912;-62
2021/11/26 02:07:45;;;;;;;8.30;3.43;;;;;;;4.99;100.00;100140.41;6183660;28;20289;-62
2021/11/26 02:11:06;;;;;;;7.37;3.70;;;;;;;4.79;100.00;100135.19;6185459;28;20229;-63
2021/11/26 02:14:27;;;;;;;8.70;4.63;;;;;;;4.91;100.00;100130.06;6183752;28;20636;-61
2021/11/26 02:17:50;;;;;;;5.80;3.23;;;;;;;4.59;100.00;100131.66;6185903;28;20194;-62
2021/11/26 02:21:13;;;;;;;6.43;4.13;;;;;;;4.46;100.00;100121.31;6185903;28;20221;-63
2021/11/26 02:24:33;;;;;;;6.90;4.07;;;;;;;5.15;100.00;100106.91;6185075;28;20499;-62
2021/11/26 02:27:59;;;;;;;5.17;3.60;;;;;;;5.15;100.00;100115.50;6188890;28;20198;-63
2021/11/26 02:31:20;;;;;;;11.00;3.80;;;;;;;4.96;100.00;100100.81;6185053;28;20261;-63
2021/11/26 02:34:41;;;;;;;6.17;3.37;;;;;;;5.07;100.00;100100.00;6185689;28;20524;-63
2021/11/26 02:38:07;;;;;;;7.60;4.37;;;;;;;5.04;100.00;100100.00;6189385;28;20190;-63
2021/11/26 02:41:27;;;;;;;4.43;3.50;;;;;;;4.98;100.00;100075.88;6185915;28;20837;-63
2021/11/26 02:44:49;;;;;;;9.10;3.63;;;;;;;4.69;100.00;100086.97;6186768;28;20229;-62
2021/11/26 02:48:10;;;;;;;6.63;4.57;;;;;;;4.81;100.00;100079.31;6185694;28;20281;-62
2021/11/26 02:51:31;;;;;;;6.60;4.57;;;;;;;4.58;100.00;100076.66;6185486;28;20221;-62
2021/11/26 02:54:54;;;;;;;8.47;5.17;;;;;;;4.75;100.00;100074.13;6184531;28;20229;-62
2021/11/26 02:58:15;;;;;;;6.43;4.70;;;;;;;4.92;100.00;100059.56;6184461;28;20584;-63
2021/11/26 03:01:36;;;;;;;7.80;4.47;;;;;;;4.63;100.00;100064.59;6183603;28;20230;-62
2021/11/26 03:04:57;;;;;;;6.67;5.37;;;;;;;4.78;100.00;100056.06;6182778;28;20538;-62
2021/11/26 03:08:18;;;;;;;7.10;5.27;;;;;;;4.67;100.00;100048.31;6189015;28;20475;-63
2021/11/26 03:11:40;;;;;;;8.00;6.77;;;;;;;4.33;100.00;100053.34;6185866;28;20245;-61
2021/11/26 03:15:01;;;;;;;9.50;5.87;;;;;;;4.74;100.00;100049.19;6169879;28;20221;-62
2021/11/26 03:18:24;;;;;;;8.33;7.03;;;;;;;4.60;100.00;100040.56;6188259;28;20225;-62
2021/11/26 03:21:45;;;;;;;11.47;6.33;;;;;;;4.57;100.00;100036.22;6183827;28;20222;-61
2021/11/26 03:25:07;;;;;;;9.20;6.30;;;;;;;4.94;100.00;100028.56;6187891;28;20619;-63
2021/11/26 03:28:29;;;;;;;9.93;6.33;;;;;;;4.47;100.00;100022.44;6175249;28;20207;-62
2021/11/26 03:31:50;;;;;;;9.73;7.10;;;;;;;4.81;100.00;100019.09;6185959;28;20226;-62
2021/11/26 03:35:12;;;;;;;11.60;6.07;;;;;;;4.88;100.00;100011.34;6190025;28;20234;-61
2021/11/26 03:38:33;;;;;;;10.53;6.13;;;;;;;4.89;100.00;100018.25;6191676;28;20240;-63
2021/11/26 03:41:53;;;;;;;9.33;6.53;;;;;;;4.62;100.00;100010.47;6188596;28;20226;-61
2021/11/26 03:45:17;;;;;;;8.47;5.87;;;;;;;5.23;100.00;100015.69;6188164;28;20226;-63
2021/11/26 03:48:39;;;;;;;11.43;6.27;;;;;;;4.96;100.00;100008.78;6190327;28;20281;-63
2021/11/26 03:52:00;;;;;;;10.20;6.60;;;;;;;4.82;100.00;100016.50;6187379;28;20221;-62
2021/11/26 03:55:23;;;;;;;8.10;6.80;;;;;;;4.92;100.00;100007.94;6189208;28;20305;-63
2021/11/26 03:58:44;;;;;;;8.80;7.93;;;;;;;5.17;100.00;100004.50;6181668;28;20205;-63
2021/11/26 04:02:08;;;;;;;13.00;7.40;;;;;;;4.88;100.00;99989.84;6190586;28;20218;-63
2021/11/26 04:05:29;;;;;;;12.17;7.73;;;;;;;4.94;100.00;99995.03;6186399;28;20685;-62
2021/11/26 04:08:50;;;;;;;8.73;7.23;;;;;;;4.74;100.00;99987.28;6186347;28;20195;-63
2021/11/26 04:12:11;;;;;;;11.27;8.83;;;;;;;4.95;100.00;99981.28;6191056;28;20623;-62
2021/11/26 04:15:33;;;;;;;12.70;9.17;;;;;;;4.76;100.00;99966.63;6186431;28;20622;-61
2021/11/26 04:18:55;;;;;;;9.53;8.60;;;;;;;4.60;100.00;99963.19;6185642;28;20198;-61
2021/11/26 04:22:16;;;;;;;10.27;8.27;;;;;;;4.12;100.00;99960.47;6186984;28;20222;-62
2021/11/26 04:25:37;;;;;;;15.83;10.77;;;;;;;4.03;100.00;99952.69;6186238;28;20225;-63
2021/11/26 04:28:59;;;;;;;12.83;9.30;;;;;;;4.35;100.00;99942.50;6190294;28;20194;-61
2021/11/26 04:32:20;;;;;;;15.10;9.90;;;;;;;4.16;100.00;99935.56;6187716;28;20198;-62
2021/11/26 04:35:46;;;;;;;12.80;9.33;;;;;;;4.04;100.00;99936.41;6188703;28;20230;-62
2021/11/26 04:39:07;;;;;;;11.83;10.67;;;;;;;3.94;100.00;99940.66;6179206;28;20212;-63
2021/11/26 04:42:28;;;;;;;13.53;12.23;;;;;;;3.87;100.00;99934.59;6189178;28;20210;-63
2021/11/26 04:45:51;;;;;;;12.23;10.37;;;;;;;4.24;100.00;99918.41;6189192;28;20253;-63
2021/11/26 04:49:12;;;;;;;13.10;11.77;;;;;;;4.01;100.00;99914.03;6189328;28;20194;-62
2021/11/26 04:52:34;;;;;;;15.07;12.43;;;;;;;3.73;100.00;99916.53;6192584;28;20451;-63
2021/11/26 04:55:55;;;;;;;16.80;13.83;;;;;;;4.01;100.00;99905.47;6189005;28;20237;-61
2021/11/26 04:59:17;;;;;;;18.07;13.60;;;;;;;3.94;100.00;99904.59;6187967;28;20237;-63
2021/11/26 05:02:38;;;;;;;16.33;13.90;;;;;;;4.14;100.00;99908.06;6189763;28;20202;-62
2021/11/26 05:05:59;;;;;;;15.80;14.13;;;;;;;3.85;100.00;99897.69;6188461;28;20237;-63
2021/11/26 05:09:22;;;;;;;17.77;15.13;;;;;;;3.78;100.00;99892.50;6188810;28;20260;-62
2021/11/26 05:12:47;;;;;;;21.20;15.27;;;;;;;3.86;100.00;99883.09;6189010;28;20198;-62
2021/11/26 05:16:08;;;;;;;19.40;16.17;;;;;;;3.98;100.00;99880.56;6187686;28;20226;-62
2021/11/26 05:19:29;;;;;;;18.70;16.83;;;;;;;3.81;100.00;99871.91;6189956;28;20250;-63
2021/11/26 05:22:51;;;;;;;20.47;16.77;;;;;;;3.74;100.00;99868.44;6190401;28;20281;-63
2021/11/26 05:26:13;;;;;;;20.43;17.47;;;;;;;3.76;100.00;99879.59;6189812;28;20230;-63
2021/11/26 05:29:34;;;;;;;26.97;20.27;;;;;;;3.91;100.00;99871.09;6182759;28;20317;-62
2021/11/26 05:32:55;;;;;;;24.50;18.87;;;;;;;3.66;100.00;99862.41;6185050;28;20230;-63
2021/11/26 05:36:16;;;;;;;26.33;20.07;;;;;;;3.79;100.00;99871.06;6185852;28;20230;-62
2021/11/26 05:39:37;;;;;;;26.93;20.00;;;;;;;3.69;100.00;99863.28;6172353;28;20667;-62
2021/11/26 05:42:59;;;;;;;26.97;23.03;;;;;;;3.85;100.00;99853.03;6186536;28;20631;-63
2021/11/26 05:46:20;;;;;;;32.67;22.57;;;;;;;3.66;100.00;99852.13;6189640;28;20238;-63
2021/11/26 05:49:41;;;;;;;30.40;23.57;;;;;;;3.61;100.00;99844.38;6187181;28;20749;-62
2021/11/26 05:53:02;;;;;;;30.33;23.60;;;;;;;3.90;100.00;99833.31;6190116;28;20206;-62
2021/11/26 05:56:23;;;;;;;29.67;21.53;;;;;;;4.05;100.00;99835.94;6161441;28;20604;-62
2021/11/26 05:59:45;;;;;;;34.47;24.23;;;;;;;4.27;100.00;99825.66;6186380;28;20771;-62
2021/11/26 06:03:06;;;;;;;28.33;22.03;;;;;;;4.02;100.00;99825.59;6177732;28;20584;-63
2021/11/26 06:06:27;;;;;;;28.13;20.77;;;;;;;4.20;100.00;99823.91;6181002;28;20229;-62
2021/11/26 06:09:48;;;;;;;28.30;21.23;;;;;;;4.35;100.00;99821.34;6181910;28;20226;-62
2021/11/26 06:13:09;;;;;;;26.93;19.27;;;;;;;4.06;100.00;99822.16;6185614;28;20202;-62
2021/11/26 06:16:31;;;;;;;35.27;23.53;;;;;;;4.53;100.00;99816.16;6187307;28;20218;-62
2021/11/26 06:19:52;;;;;;;25.60;18.30;;;;;;;4.41;100.00;99805.88;6183997;28;22144;-62
2021/11/26 06:23:13;;;;;;;25.07;19.63;;;;;;;4.02;100.00;99811.88;6188005;28;20762;-63
2021/11/26 06:26:35;;;;;;;22.80;17.00;;;;;;;3.83;100.00;99808.38;6186343;28;20736;-62
2021/11/26 06:29:56;;;;;;;22.53;18.00;;;;;;;4.13;100.00;99805.88;6183333;28;20237;-63
2021/11/26 06:33:18;;;;;;;29.03;20.40;;;;;;;4.23;100.00;99808.47;6179796;28;20202;-62
2021/11/26 06:36:39;;;;;;;24.13;17.63;;;;;;;3.93;100.00;99799.81;6182842;28;20696;-61
2021/11/26 06:40:00;;;;;;;26.33;18.37;;;;;;;3.86;100.00;99803.25;6185527;28;20557;-61
2021/11/26 06:43:21;;;;;;;24.73;17.40;;;;;;;4.50;100.00;99795.56;6184011;28;20230;-63
2021/11/26 06:46:42;;;;;;;25.17;19.27;;;;;;;4.43;100.00;99790.41;6187321;28;20233;-62
2021/11/26 06:50:05;;;;;;;24.60;18.07;;;;;;;4.27;100.00;99798.16;6169764;28;20241;-62
2021/11/26 06:53:26;;;;;;;26.03;20.13;;;;;;;4.18;100.00;99792.97;6174435;28;20520;-62
2021/11/26 06:56:47;;;;;;;30.63;22.00;;;;;;;4.37;100.00;99782.69;6174110;28;20248;-63
2021/11/26 07:00:10;;;;;;;25.00;18.70;;;;;;;4.43;100.00;99780.94;6170156;28;20631;-63
2021/11/26 07:03:31;;;;;;;29.77;19.27;;;;;;;4.37;100.00;99774.94;6173462;28;22413;-63
2021/11/26 07:06:53;;;;;;;21.97;16.40;;;;;;;4.12;100.00;99780.94;6173505;28;20737;-63
2021/11/26 07:10:15;;;;;;;26.63;17.70;;;;;;;4.48;100.00;99773.22;6175650;28;20508;-62
2021/11/26 07:13:36;;;;;;;24.43;17.87;;;;;;;3.81;100.00;99779.19;6174158;28;20218;-63
2021/11/26 07:16:57;;;;;;;24.87;17.90;;;;;;;4.45;100.00;99779.22;6171622;28;20226;-62
2021/11/26 07:20:18;;;;;;;26.93;20.47;;;;;;;4.16;100.00;99765.50;6180077;28;20229;-63
2021/11/26 07:23:40;;;;;;;24.77;19.70;;;;;;;4.21;100.00;99763.78;6168866;28;20198;-63
2021/11/26 07:27:02;;;;;;;28.73;19.33;;;;;;;4.16;100.00;99761.19;6171906;28;20226;-63
2021/11/26 07:30:23;;;;;;;24.87;18.13;;;;;;;4.01;100.00;99751.72;6170103;28;20233;-63
2021/11/26 07:33:45;;;;;;;31.87;20.13;;;;;;;4.41;100.00;99751.72;6169930;28;20526;-62
2021/11/26 07:37:06;;;;;;;23.33;17.00;;;;;;;4.36;100.00;99748.28;6174939;28;20336;-63
2021/11/26 07:40:28;;;;;;;25.43;19.57;;;;;;;4.15;100.00;99749.19;6176705;28;20544;-62
2021/11/26 07:43:49;;;;;;;22.70;17.80;;;;;;;4.28;100.00;99747.44;6185162;28;20535;-62
2021/11/26 07:47:15;;;;;;;19.20;15.23;;;;;;;4.14;100.00;99739.72;6176346;28;20321;-62
2021/11/26 07:50:36;;;;;;;26.57;18.90;;;;;;;4.21;100.00;99732.88;6176410;28;20653;-62
2021/11/26 07:53:57;;;;;;;22.33;16.93;;;;;;;4.54;100.00;99727.66;6186447;28;20206;-62
2021/11/26 07:57:20;;;;;;;22.00;17.13;;;;;;;4.41;100.00;99730.25;6182741;28;20714;-63
2021/11/26 08:00:41;;;;;;;25.92;19.15;;;;;;;4.70;100.00;99720.72;6187603;28;20747;-63
2021/11/26 08:04:02;;;;;;;25.80;18.33;;;;;;;4.81;100.00;99717.25;6183663;28;20218;-62
2021/11/26 08:07:23;;;;;;;21.27;14.47;;;;;;;4.43;100.00;99718.22;6188069;28;20582;-63
2021/11/26 08:10:44;;;;;;;22.50;15.23;;;;;;;4.79;100.00;99704.38;6189987;28;20531;-62
2021/11/26 08:14:06;;;;;;;21.20;15.50;;;;;;;4.73;100.00;99702.69;6179163;28;20207;-63
2021/11/26 08:17:27;;;;;;;20.77;16.03;;;;;;;4.58;100.00;99707.03;6185776;28;20194;-62
2021/11/26 08:20:48;;;;;;;21.20;15.20;;;;;;;4.72;100.00;99697.53;6176644;28;21835;-63
2021/11/26 08:24:11;;;;;;;22.40;16.63;;;;;;;4.43;100.00;99695.03;6174983;28;20218;-63
2021/11/26 08:27:32;;;;;;;22.03;17.93;;;;;;;4.58;100.00;99683.81;6172414;28;20210;-63
2021/11/26 08:30:55;;;;;;;20.80;15.50;;;;;;;4.56;100.00;99685.56;6157872;28;20321;-62
2021/11/26 08:34:16;;;;;;;25.83;17.07;;;;;;;4.30;100.00;99696.75;6158741;28;20226;-62
2021/11/26 08:37:37;;;;;;;20.67;14.90;;;;;;;4.48;100.00;99680.41;6149114;28;20211;-61
2021/11/26 08:40:58;;;;;;;24.07;16.30;;;;;;;4.67;100.00;99678.63;6160333;28;20226;-62
2021/11/26 08:44:20;;;;;;;18.87;14.50;;;;;;;4.70;100.00;99676.88;6155868;28;20234;-61
2021/11/26 08:47:43;;;;;;;17.27;13.80;;;;;;;4.56;100.00;99670.94;6149314;28;20618;-61
2021/11/26 08:51:05;;;;;;;17.50;12.97;;;;;;;4.67;100.00;99669.19;6159315;28;20229;-61
2021/11/26 08:54:26;;;;;;;16.63;13.27;;;;;;;4.64;100.00;99665.75;6159409;28;20234;-60
2021/11/26 08:57:53;;;;;;;19.87;12.37;;;;;;;4.71;100.00;99660.56;6158996;28;20348;-62
2021/11/26 09:01:15;;;;;;;17.53;13.60;;;;;;;5.08;100.00;99656.97;6165383;28;20336;-61
2021/11/26 09:04:37;;;;;;;17.73;13.57;;;;;;;4.85;100.00;99660.50;6171520;28;20230;-61
2021/11/26 09:08:00;;;;;;;18.63;14.87;;;;;;;4.82;100.00;99650.19;6168968;28;20844;-61
2021/11/26 09:11:21;;;;;;;18.60;12.27;;;;;;;4.62;100.00;99645.13;6163821;28;20226;-61
2021/11/26 09:14:42;;;;;;;19.10;13.70;;;;;;;4.69;100.00;99645.94;6163747;28;20261;-61
2021/11/26 09:18:04;;;;;;;17.67;13.73;;;;;;;4.99;100.00;99631.22;6173221;28;20533;-60
2021/11/26 09:21:26;;;;;;;20.20;14.13;;;;;;;4.58;100.00;99635.69;6172790;28;20233;-61
2021/11/26 09:24:47;;;;;;;15.57;11.80;;;;;;;4.62;100.00;99629.66;6166909;28;20234;-61
2021/11/26 09:28:08;;;;;;;17.40;12.73;;;;;;;4.63;100.00;99630.50;6182876;28;20722;-60
2021/11/26 09:31:29;;;;;;;16.63;12.83;;;;;;;4.66;100.00;99617.59;6175950;28;20264;-61
2021/11/26 09:34:50;;;;;;;17.17;13.30;;;;;;;5.01;100.00;99619.16;6180540;28;20238;-62
2021/11/26 09:38:13;;;;;;;18.47;12.97;;;;;;;4.84;100.00;99609.75;6185273;28;20233;-61
2021/11/26 09:41:33;;;;;;;18.30;13.17;;;;;;;4.91;100.00;99598.56;6187795;28;20234;-62
2021/11/26 09:44:56;;;;;;;18.23;13.63;;;;;;;5.14;100.00;99595.00;6190794;28;20614;-62
2021/11/26 09:48:17;;;;;;;16.07;13.30;;;;;;;4.85;100.00;99598.59;6189536;28;20611;-61
2021/11/26 09:51:38;;;;;;;18.17;14.00;;;;;;;4.91;100.00;99595.13;6188299;28;20225;-62
2021/11/26 09:55:01;;;;;;;16.10;12.27;;;;;;;4.89;100.00;99584.81;6190447;28;20222;-62
2021/11/26 09:58:24;;;;;;;14.07;10.70;;;;;;;4.56;100.00;99579.84;6182649;28;20214;-62
2021/11/26 10:01:45;;;;;;;15.37;10.37;;;;;;;4.81;100.00;99571.09;6181701;28;20233;-61
2021/11/26 10:05:09;;;;;;;12.43;9.87;;;;;;;4.58;100.00;99567.78;6187825;28;20230;-63
2021/11/26 10:08:30;;;;;;;13.80;12.10;;;;;;;4.75;100.00;99560.81;6188055;28;20794;-62
2021/11/26 10:11:54;;;;;;;14.43;10.70;;;;;;;4.84;100.00;99565.06;6188039;28;20237;-61
2021/11/26 10:15:17;;;;;;;15.50;11.20;;;;;;;4.87;100.00;99554.75;6180686;28;20233;-63
2021/11/26 10:18:38;;;;;;;13.10;10.43;;;;;;;5.32;100.00;99548.38;6183541;28;20203;-62
2021/11/26 10:21:59;;;;;;;12.43;9.70;;;;;;;5.43;100.00;99534.50;6146870;28;20241;-63
2021/11/26 10:25:21;;;;;;;14.27;12.40;;;;;;;5.51;100.00;99528.44;6170146;28;20255;-62
2021/11/26 10:28:47;;;;;;;12.50;9.70;;;;;;;5.36;100.00;99523.41;6175114;28;20209;-62
2021/11/26 10:32:12;;;;;;;15.67;11.23;;;;;;;5.34;100.00;99514.81;6174896;28;20217;-62
2021/11/26 10:35:35;;;;;;;14.63;11.23;;;;;;;5.59;100.00;99506.84;6158973;28;20225;-61
2021/11/26 10:38:57;;;;;;;11.77;8.77;;;;;;;5.79;100.00;99501.47;6163244;28;20201;-62
2021/11/26 10:42:26;;;;;;;10.80;9.67;;;;;;;5.09;100.00;99499.50;6156330;28;20229;-62
2021/11/26 10:46:13;;;;;;;11.47;9.70;;;;;;;5.44;100.00;99485.44;6166228;28;20249;-62
2021/11/26 11:01:05;;;;;;;15.30;10.77;;;;;;;4.99;100.00;99458.34;6184559;28;20241;-61
2021/11/26 11:04:27;;;;;;;22.10;12.90;;;;;;;5.53;100.00;99448.38;6186296;28;20226;-63
2021/11/26 11:07:48;;;;;;;16.27;12.23;;;;;;;5.48;100.00;99443.22;6176350;28;20199;-61
2021/11/26 11:11:09;;;;;;;15.20;11.30;;;;;;;5.27;100.00;99439.16;6180940;28;20607;-63
2021/11/26 11:14:30;;;;;;;14.43;11.00;;;;;;;5.62;100.00;99430.19;6176617;28;20619;-63
2021/11/26 11:17:52;;;;;;;19.83;11.13;;;;;;;5.39;100.00;99426.97;6170291;28;20206;-61
2021/11/26 11:21:14;;;;;;;19.57;11.17;;;;;;;5.40;100.00;99432.13;6175714;28;20226;-61
2021/11/26 11:24:35;;;;;;;15.37;11.07;;;;;;;5.83;100.00;99417.88;6182527;28;20229;-62
2021/11/26 11:27:57;;;;;;;14.67;10.53;;;;;;;5.65;100.00;99406.91;6184560;28;20210;-62
2021/11/26 11:31:19;;;;;;;20.07;12.00;;;;;;;6.16;100.00;99414.03;6183785;28;20225;-62
2021/11/26 11:34:45;;;;;;;17.53;11.13;;;;;;;5.95;100.00;99407.44;6184891;28;20230;-63
2021/11/26 11:38:09;;;;;;;14.80;11.47;;;;;;;6.07;100.00;99399.53;6189679;28;20194;-62
2021/11/26 11:41:31;;;;;;;15.50;10.30;;;;;;;6.25;100.00;99395.00;6188924;28;20226;-62
2021/11/26 11:44:56;;;;;;;15.53;11.03;;;;;;;5.90;100.00;99391.13;6189350;28;20325;-62
2021/11/26 11:48:23;;;;;;;19.47;13.23;;;;;;;6.01;100.00;99383.22;6186088;28;20236;-61
2021/11/26 11:51:48;;;;;;;17.53;12.83;;;;;;;6.02;100.00;99375.47;6184303;28;20238;-62
2021/11/26 11:55:28;;;;;;;20.60;12.03;;;;;;;5.84;100.00;99380.88;6182206;28;20517;-63
2021/11/26 11:58:51;;;;;;;18.40;13.47;;;;;;;5.94;100.00;99372.09;6192407;28;20502;-62
2021/11/26 12:02:23;;;;;;;23.30;14.03;;;;;;;5.77;100.00;99368.88;6187100;28;21446;-63
2021/11/26 12:05:56;;;;;;;20.83;14.23;;;;;;;6.04;100.00;99359.94;6187975;28;20234;-61
2021/11/26 12:09:24;;;;;;;16.47;12.77;;;;;;;6.02;99.95;99354.78;6185816;28;20332;-62
2021/11/26 12:12:47;;;;;;;19.00;13.70;;;;;;;5.88;99.94;99330.84;6184357;28;20278;-63
2021/11/26 12:16:11;;;;;;;20.67;15.60;;;;;;;5.96;100.00;99341.97;6181287;28;20262;-63
2021/11/26 12:19:32;;;;;;;21.73;13.73;;;;;;;6.15;100.00;99329.63;6185735;28;20627;-62
2021/11/26 12:22:55;;;;;;;18.70;14.57;;;;;;;6.05;100.00;99320.31;6181607;28;20848;-63
2021/11/26 12:26:21;;;;;;;19.57;14.13;;;;;;;6.26;97.69;99307.06;6180954;28;20226;-61
2021/11/26 12:29:44;;;;;;;24.83;15.30;;;;;;;6.36;98.28;99307.78;6171690;28;20688;-62
2021/11/26 12:33:20;;;;;;;19.07;15.30;;;;;;;6.50;96.85;99308.41;6173029;28;20471;-62
2021/11/26 12:36:44;;;;;;;21.33;14.90;;;;;;;5.68;100.00;99303.56;6175340;28;20265;-62
2021/11/26 12:40:09;;;;;;;19.87;15.13;;;;;;;5.75;100.00;99296.56;6173776;28;20226;-62
2021/11/26 12:43:41;;;;;;;18.30;14.17;;;;;;;6.11;98.42;99287.47;6184658;28;20567;-63
2021/11/26 12:47:04;;;;;;;21.83;16.13;;;;;;;5.90;98.17;99282.59;6174362;28;20229;-62
2021/11/26 12:54:05;;;;;;;21.57;15.23;;;;;;;6.23;98.13;99268.31;6155543;28;20214;-60
2021/11/26 12:57:30;;;;;;;23.40;13.97;;;;;;;6.06;97.98;99255.66;6178634;28;20218;-61
2021/11/26 13:00:57;;;;;;;19.10;13.17;;;;;;;6.03;97.08;99255.72;6176249;28;20213;-61
2021/11/26 13:04:18;;;;;;;18.50;14.07;;;;;;;5.92;98.61;99252.41;6169550;28;20234;-60
2021/11/26 13:07:42;;;;;;;19.17;13.73;;;;;;;5.68;99.46;99257.06;6169291;28;20198;-61
2021/11/26 13:11:05;;;;;;;18.20;13.43;;;;;;;6.30;96.17;99241.50;6171554;28;20237;-62
2021/11/26 13:14:26;;;;;;;22.93;14.70;;;;;;;6.07;96.60;99236.72;6168192;28;20230;-60
2021/11/26 13:17:49;;;;;;;17.33;12.50;;;;;;;5.98;97.98;99233.41;6168987;28;20231;-61
2021/11/26 13:21:13;;;;;;;20.30;13.87;;;;;;;5.98;97.81;99221.34;6171695;28;20314;-62
2021/11/26 13:24:34;;;;;;;17.83;12.77;;;;;;;5.62;98.94;99221.00;6168349;28;20253;-60
2021/11/26 13:27:59;;;;;;;17.30;12.40;;;;;;;5.84;98.32;99205.19;6176119;28;20221;-61
2021/11/26 13:31:23;;;;;;;14.57;11.10;;;;;;;5.56;98.41;99194.41;6177295;28;20905;-61
2021/11/26 13:34:57;;;;;;;19.10;11.27;;;;;;;6.00;97.98;99185.16;6181354;28;20526;-61
2021/11/26 13:38:23;;;;;;;14.30;9.67;;;;;;;5.92;97.21;99182.66;6175285;28;20296;-60
2021/11/26 13:41:48;;;;;;;18.07;10.67;;;;;;;6.09;95.74;99175.50;6183746;28;20505;-61
2021/11/26 13:45:09;;;;;;;20.30;10.67;;;;;;;6.28;94.75;99167.41;6183172;28;20237;-62
2021/11/26 13:48:30;;;;;;;18.97;11.13;;;;;;;6.25;94.02;99154.56;6190434;28;20508;-61
2021/11/26 13:51:54;;;;;;;16.53;10.80;;;;;;;5.99;95.40;99150.72;6187587;28;20237;-62
2021/11/26 13:55:17;;;;;;;14.03;9.17;;;;;;;6.11;94.43;99150.47;6192507;28;20230;-62
2021/11/26 13:58:38;;;;;;;13.80;9.70;;;;;;;6.10;94.70;99151.34;6191296;28;20194;-61
2021/11/26 14:02:06;;;;;;;14.20;7.90;;;;;;;5.89;95.61;99151.69;6189713;28;20218;-61
2021/11/26 14:05:29;;;;;;;14.47;8.73;;;;;;;6.18;94.85;99148.63;6191072;28;20320;-60
2021/11/26 14:08:54;;;;;;;12.83;7.80;;;;;;;6.12;93.51;99151.31;6191170;28;20206;-61
2021/11/26 14:12:16;;;;;;;8.83;6.53;;;;;;;5.57;96.12;99137.56;6189502;28;20313;-60
2021/11/26 14:15:37;;;;;;;12.83;8.23;;;;;;;5.85;95.86;99139.69;6188265;28;20229;-62
2021/11/26 14:18:59;;;;;;;11.63;7.50;;;;;;;5.67;96.90;99136.53;6181466;28;20210;-61
2021/11/26 14:22:23;;;;;;;10.33;7.27;;;;;;;5.70;98.54;99127.91;6190093;28;20186;-61
2021/11/26 14:25:45;;;;;;;14.40;8.90;;;;;;;5.76;98.56;99126.91;6189426;28;20563;-61
2021/11/26 14:29:09;;;;;;;17.10;9.03;;;;;;;5.80;98.13;99115.69;6183480;28;20491;-60
2021/11/26 14:32:31;;;;;;;8.13;7.13;;;;;;;5.86;96.29;99107.84;6183668;28;20296;-61
2021/11/26 14:35:52;;;;;;;9.33;6.10;;;;;;;5.74;96.35;99106.31;6187833;28;20317;-60
2021/11/26 14:39:13;;;;;;;10.40;7.60;;;;;;;5.47;96.68;99113.63;6184956;28;20202;-60
2021/11/26 14:42:36;;;;;;;11.87;7.43;;;;;;;5.83;97.27;99110.44;6189101;28;20206;-61
2021/11/26 14:46:04;;;;;;;11.60;7.33;;;;;;;5.73;96.37;99108.00;6188637;28;20222;-62
2021/11/26 14:49:36;;;;;;;9.60;6.90;;;;;;;5.53;98.88;99104.91;6185390;28;20221;-60
2021/11/26 14:53:09;;;;;;;9.03;6.73;;;;;;;5.59;97.94;99102.25;6183197;28;20595;-61
2021/11/26 14:56:32;;;;;;;10.83;8.17;;;;;;;5.81;97.06;99087.22;6183915;28;20257;-62
2021/11/26 14:59:56;;;;;;;11.27;7.90;;;;;;;5.54;100.00;99085.94;6188318;28;20226;-62
2021/11/26 15:03:17;;;;;;;9.93;7.83;;;;;;;5.67;100.00;99084.88;6188798;28;20206;-62
2021/11/26 15:06:38;;;;;;;8.67;6.77;;;;;;;5.32;100.00;99083.72;6186379;28;20608;-62
2021/11/26 15:10:00;;;;;;;11.73;7.50;;;;;;;5.33;100.00;99079.41;6168135;28;20561;-62
2021/11/26 15:13:21;;;;;;;11.20;8.40;;;;;;;5.34;100.00;99083.69;6184003;28;20218;-61
2021/11/26 15:16:43;;;;;;;8.10;5.93;;;;;;;5.18;100.00;99075.34;6180583;28;22717;-62
2021/11/26 15:20:05;;;;;;;11.00;7.13;;;;;;;5.36;100.00;99079.38;6180148;28;20230;-60
2021/11/26 15:23:26;;;;;;;7.80;6.67;;;;;;;5.30;100.00;99072.56;6184211;28;20520;-62
2021/11/26 15:26:48;;;;;;;17.90;7.40;;;;;;;5.27;100.00;99070.06;6178379;28;20598;-60
2021/11/26 15:30:10;;;;;;;7.73;5.90;;;;;;;5.55;99.69;99058.44;6185928;28;20561;-61
2021/11/26 15:33:32;;;;;;;6.53;5.27;;;;;;;5.23;100.00;99060.63;6189961;28;20198;-63
2021/11/26 15:36:53;;;;;;;9.83;6.53;;;;;;;5.03;100.00;99048.03;6197056;28;20234;-61
2021/11/26 15:40:14;;;;;;;7.53;6.73;;;;;;;4.78;100.00;99050.09;6188612;28;20234;-60
2021/11/26 15:43:36;;;;;;;10.67;6.27;;;;;;;4.98;100.00;99052.38;6180292;28;20202;-61
2021/11/26 15:46:57;;;;;;;7.83;5.57;;;;;;;5.15;99.90;99059.88;6152880;28;20329;-63
2021/11/26 15:50:22;;;;;;;8.60;6.23;;;;;;;5.03;100.00;99042.03;6192055;28;20619;-62
2021/11/26 15:53:43;;;;;;;7.17;6.50;;;;;;;5.41;99.59;99030.22;6184333;28;20199;-63